sensor_id;sensor_type;location;lat;lon;timestamp;P1;durP1;ratioP1;P2;durP2;ratioP2
69835;SDS011;57132;51.972;4.450;2023-05-09T00:01:33;46.85;;;24.58;;
69835;SDS011;57132;51.972;4.450;2023-05-09T00:03:59;45.15;;;24.52;;
69835;SDS011;57132;51.972;4.450;2023-05-09T00:06:25;45.25;;;23.55;;
69835;SDS011;57132;51.972;4.450;2023-05-09T00:08:52;41.67;;;23.05;;
69835;SDS011;57132;51.972;4.450;2023-05-09T00:11:18;41.70;;;22.83;;
69835;SDS011;57132;51.972;4.450;2023-05-09T00:13:43;40.67;;;23.20;;
69835;SDS011;57132;51.972;4.450;2023-05-09T00:16:09;49.72;;;24.27;;
69835;SDS011;57132;51.972;4.450;2023-05-09T00:18:35;44.72;;;23.88;;
69835;SDS011;57132;51.972;4.450;2023-05-09T00:21:01;38.50;;;22.95;;
69835;SDS011;57132;51.972;4.450;2023-05-09T00:23:28;45.47;;;23.55;;
69835;SDS011;57132;51.972;4.450;2023-05-09T00:25:54;43.08;;;22.17;;
69835;SDS011;57132;51.972;4.450;2023-05-09T00:28:19;39.85;;;23.42;;
69835;SDS011;57132;51.972;4.450;2023-05-09T00:30:45;40.05;;;22.98;;
69835;SDS011;57132;51.972;4.450;2023-05-09T00:33:10;39.97;;;21.48;;
69835;SDS011;57132;51.972;4.450;2023-05-09T00:35:35;39.35;;;21.10;;
69835;SDS011;57132;51.972;4.450;2023-05-09T00:38:01;41.20;;;23.67;;
69835;SDS011;57132;51.972;4.450;2023-05-09T00:40:26;36.45;;;21.27;;
69835;SDS011;57132;51.972;4.450;2023-05-09T00:42:51;39.55;;;21.42;;
69835;SDS011;57132;51.972;4.450;2023-05-09T00:45:17;37.88;;;21.10;;
69835;SDS011;57132;51.972;4.450;2023-05-09T00:47:42;45.28;;;22.02;;
69835;SDS011;57132;51.972;4.450;2023-05-09T00:50:08;33.17;;;19.90;;
69835;SDS011;57132;51.972;4.450;2023-05-09T00:52:33;39.20;;;20.10;;
69835;SDS011;57132;51.972;4.450;2023-05-09T00:55:00;34.22;;;19.23;;
69835;SDS011;57132;51.972;4.450;2023-05-09T00:57:26;38.75;;;20.00;;
69835;SDS011;57132;51.972;4.450;2023-05-09T00:59:51;30.40;;;19.50;;
69835;SDS011;57132;51.972;4.450;2023-05-09T01:02:17;35.75;;;19.83;;
69835;SDS011;57132;51.972;4.450;2023-05-09T01:04:43;36.10;;;20.65;;
69835;SDS011;57132;51.972;4.450;2023-05-09T01:10:10;33.13;;;18.63;;
69835;SDS011;57132;51.972;4.450;2023-05-09T01:12:42;33.63;;;18.88;;
69835;SDS011;57132;51.972;4.450;2023-05-09T01:18:42;36.38;;;18.85;;
69835;SDS011;57132;51.972;4.450;2023-05-09T01:21:19;32.03;;;18.52;;
69835;SDS011;57132;51.972;4.450;2023-05-09T01:24:11;37.03;;;18.75;;
69835;SDS011;57132;51.972;4.450;2023-05-09T01:27:00;32.67;;;17.38;;
69835;SDS011;57132;51.972;4.450;2023-05-09T01:29:58;35.60;;;18.30;;
69835;SDS011;57132;51.972;4.450;2023-05-09T01:32:27;32.35;;;17.50;;
69835;SDS011;57132;51.972;4.450;2023-05-09T01:34:54;33.92;;;17.65;;
69835;SDS011;57132;51.972;4.450;2023-05-09T01:37:27;32.60;;;17.20;;
69835;SDS011;57132;51.972;4.450;2023-05-09T01:39:56;31.33;;;18.67;;
69835;SDS011;57132;51.972;4.450;2023-05-09T01:42:25;29.23;;;18.50;;
69835;SDS011;57132;51.972;4.450;2023-05-09T01:44:54;32.83;;;18.70;;
69835;SDS011;57132;51.972;4.450;2023-05-09T01:47:21;34.65;;;18.92;;
69835;SDS011;57132;51.972;4.450;2023-05-09T01:49:47;33.08;;;17.63;;
69835;SDS011;57132;51.972;4.450;2023-05-09T01:52:15;28.67;;;16.95;;
69835;SDS011;57132;51.972;4.450;2023-05-09T01:54:42;37.25;;;19.20;;
69835;SDS011;57132;51.972;4.450;2023-05-09T01:57:09;34.78;;;18.27;;
69835;SDS011;57132;51.972;4.450;2023-05-09T01:59:35;34.33;;;19.08;;
69835;SDS011;57132;51.972;4.450;2023-05-09T02:02:05;33.50;;;18.83;;
69835;SDS011;57132;51.972;4.450;2023-05-09T02:04:31;33.13;;;17.40;;
69835;SDS011;57132;51.972;4.450;2023-05-09T02:06:58;29.05;;;17.13;;
69835;SDS011;57132;51.972;4.450;2023-05-09T02:09:26;27.00;;;16.65;;
69835;SDS011;57132;51.972;4.450;2023-05-09T02:11:52;31.77;;;17.08;;
69835;SDS011;57132;51.972;4.450;2023-05-09T02:14:18;27.75;;;15.80;;
69835;SDS011;57132;51.972;4.450;2023-05-09T02:16:43;29.38;;;16.67;;
69835;SDS011;57132;51.972;4.450;2023-05-09T02:19:09;29.88;;;16.65;;
69835;SDS011;57132;51.972;4.450;2023-05-09T02:21:34;31.27;;;16.10;;
69835;SDS011;57132;51.972;4.450;2023-05-09T02:24:00;26.85;;;14.98;;
69835;SDS011;57132;51.972;4.450;2023-05-09T02:26:25;23.60;;;14.38;;
69835;SDS011;57132;51.972;4.450;2023-05-09T02:28:52;28.27;;;16.63;;
69835;SDS011;57132;51.972;4.450;2023-05-09T02:31:19;22.70;;;14.82;;
69835;SDS011;57132;51.972;4.450;2023-05-09T02:33:47;23.48;;;14.85;;
69835;SDS011;57132;51.972;4.450;2023-05-09T02:36:15;27.65;;;16.23;;
69835;SDS011;57132;51.972;4.450;2023-05-09T02:38:42;25.05;;;15.70;;
69835;SDS011;57132;51.972;4.450;2023-05-09T02:41:12;25.95;;;14.43;;
69835;SDS011;57132;51.972;4.450;2023-05-09T02:43:38;25.38;;;15.88;;
69835;SDS011;57132;51.972;4.450;2023-05-09T02:46:03;27.30;;;15.50;;
69835;SDS011;57132;51.972;4.450;2023-05-09T02:48:29;24.40;;;14.90;;
69835;SDS011;57132;51.972;4.450;2023-05-09T02:50:54;24.35;;;14.65;;
69835;SDS011;57132;51.972;4.450;2023-05-09T02:53:19;29.48;;;15.05;;
69835;SDS011;57132;51.972;4.450;2023-05-09T02:55:45;27.90;;;14.95;;
69835;SDS011;57132;51.972;4.450;2023-05-09T02:58:10;26.30;;;14.73;;
69835;SDS011;57132;51.972;4.450;2023-05-09T03:00:35;30.13;;;15.45;;
69835;SDS011;57132;51.972;4.450;2023-05-09T03:03:01;26.50;;;15.32;;
69835;SDS011;57132;51.972;4.450;2023-05-09T03:05:26;27.38;;;15.95;;
69835;SDS011;57132;51.972;4.450;2023-05-09T03:07:52;31.33;;;15.27;;
69835;SDS011;57132;51.972;4.450;2023-05-09T03:10:17;27.75;;;16.23;;
69835;SDS011;57132;51.972;4.450;2023-05-09T03:12:43;29.77;;;17.45;;
69835;SDS011;57132;51.972;4.450;2023-05-09T03:15:08;34.60;;;16.55;;
69835;SDS011;57132;51.972;4.450;2023-05-09T03:17:34;28.45;;;17.17;;
69835;SDS011;57132;51.972;4.450;2023-05-09T03:20:00;28.85;;;16.52;;
69835;SDS011;57132;51.972;4.450;2023-05-09T03:22:30;27.02;;;16.00;;
69835;SDS011;57132;51.972;4.450;2023-05-09T03:24:56;34.40;;;17.73;;
69835;SDS011;57132;51.972;4.450;2023-05-09T03:27:21;27.48;;;17.33;;
69835;SDS011;57132;51.972;4.450;2023-05-09T03:29:46;27.88;;;15.77;;
69835;SDS011;57132;51.972;4.450;2023-05-09T03:32:12;30.83;;;17.08;;
69835;SDS011;57132;51.972;4.450;2023-05-09T03:34:37;31.63;;;17.42;;
69835;SDS011;57132;51.972;4.450;2023-05-09T03:37:02;30.23;;;18.52;;
69835;SDS011;57132;51.972;4.450;2023-05-09T03:39:28;28.75;;;17.60;;
69835;SDS011;57132;51.972;4.450;2023-05-09T03:41:53;31.85;;;17.52;;
69835;SDS011;57132;51.972;4.450;2023-05-09T03:44:18;29.33;;;17.48;;
69835;SDS011;57132;51.972;4.450;2023-05-09T03:46:44;35.10;;;17.17;;
69835;SDS011;57132;51.972;4.450;2023-05-09T03:49:09;29.17;;;17.52;;
69835;SDS011;57132;51.972;4.450;2023-05-09T03:51:34;31.15;;;17.73;;
69835;SDS011;57132;51.972;4.450;2023-05-09T03:54:00;32.10;;;18.08;;
69835;SDS011;57132;51.972;4.450;2023-05-09T03:56:26;30.98;;;16.77;;
69835;SDS011;57132;51.972;4.450;2023-05-09T03:58:51;32.05;;;18.55;;
69835;SDS011;57132;51.972;4.450;2023-05-09T04:01:17;32.67;;;18.33;;
69835;SDS011;57132;51.972;4.450;2023-05-09T04:03:43;31.10;;;17.83;;
69835;SDS011;57132;51.972;4.450;2023-05-09T04:06:08;29.10;;;18.08;;
69835;SDS011;57132;51.972;4.450;2023-05-09T04:08:35;33.25;;;17.10;;
69835;SDS011;57132;51.972;4.450;2023-05-09T04:11:00;34.90;;;18.02;;
69835;SDS011;57132;51.972;4.450;2023-05-09T04:13:26;28.70;;;17.48;;
69835;SDS011;57132;51.972;4.450;2023-05-09T04:15:53;31.08;;;18.27;;
69835;SDS011;57132;51.972;4.450;2023-05-09T04:18:19;30.70;;;16.75;;
69835;SDS011;57132;51.972;4.450;2023-05-09T04:20:44;31.38;;;18.75;;
69835;SDS011;57132;51.972;4.450;2023-05-09T04:23:10;32.78;;;17.60;;
69835;SDS011;57132;51.972;4.450;2023-05-09T04:25:35;31.48;;;16.70;;
69835;SDS011;57132;51.972;4.450;2023-05-09T04:28:01;29.20;;;17.08;;
69835;SDS011;57132;51.972;4.450;2023-05-09T04:30:29;32.78;;;17.55;;
69835;SDS011;57132;51.972;4.450;2023-05-09T04:32:54;31.63;;;18.20;;
69835;SDS011;57132;51.972;4.450;2023-05-09T04:35:20;29.55;;;18.25;;
69835;SDS011;57132;51.972;4.450;2023-05-09T04:37:46;31.65;;;17.25;;
69835;SDS011;57132;51.972;4.450;2023-05-09T04:40:11;26.98;;;16.00;;
69835;SDS011;57132;51.972;4.450;2023-05-09T04:42:37;31.38;;;16.83;;
69835;SDS011;57132;51.972;4.450;2023-05-09T04:45:03;28.13;;;16.02;;
69835;SDS011;57132;51.972;4.450;2023-05-09T04:47:29;26.88;;;15.55;;
69835;SDS011;57132;51.972;4.450;2023-05-09T04:49:56;29.83;;;15.52;;
69835;SDS011;57132;51.972;4.450;2023-05-09T04:52:21;25.02;;;14.98;;
69835;SDS011;57132;51.972;4.450;2023-05-09T04:54:47;23.75;;;14.13;;
69835;SDS011;57132;51.972;4.450;2023-05-09T04:57:12;25.35;;;14.55;;
69835;SDS011;57132;51.972;4.450;2023-05-09T04:59:37;21.25;;;13.57;;
69835;SDS011;57132;51.972;4.450;2023-05-09T05:02:03;24.13;;;13.75;;
69835;SDS011;57132;51.972;4.450;2023-05-09T05:04:28;22.55;;;13.38;;
69835;SDS011;57132;51.972;4.450;2023-05-09T05:06:55;23.98;;;14.50;;
69835;SDS011;57132;51.972;4.450;2023-05-09T05:09:20;23.45;;;13.23;;
69835;SDS011;57132;51.972;4.450;2023-05-09T05:11:45;19.13;;;12.85;;
69835;SDS011;57132;51.972;4.450;2023-05-09T05:14:11;22.13;;;12.40;;
69835;SDS011;57132;51.972;4.450;2023-05-09T05:16:36;25.35;;;15.15;;
69835;SDS011;57132;51.972;4.450;2023-05-09T05:19:01;28.23;;;14.35;;
69835;SDS011;57132;51.972;4.450;2023-05-09T05:21:27;21.52;;;14.07;;
69835;SDS011;57132;51.972;4.450;2023-05-09T05:23:52;28.52;;;15.00;;
69835;SDS011;57132;51.972;4.450;2023-05-09T05:26:17;23.98;;;15.10;;
69835;SDS011;57132;51.972;4.450;2023-05-09T05:28:45;26.17;;;14.60;;
69835;SDS011;57132;51.972;4.450;2023-05-09T05:31:10;24.02;;;15.55;;
69835;SDS011;57132;51.972;4.450;2023-05-09T05:33:36;26.13;;;16.15;;
69835;SDS011;57132;51.972;4.450;2023-05-09T05:36:01;27.52;;;15.65;;
69835;SDS011;57132;51.972;4.450;2023-05-09T05:38:26;26.23;;;16.23;;
69835;SDS011;57132;51.972;4.450;2023-05-09T05:40:52;25.20;;;15.27;;
69835;SDS011;57132;51.972;4.450;2023-05-09T05:43:17;28.30;;;16.27;;
69835;SDS011;57132;51.972;4.450;2023-05-09T05:45:42;24.33;;;15.27;;
69835;SDS011;57132;51.972;4.450;2023-05-09T05:48:08;26.95;;;15.02;;
69835;SDS011;57132;51.972;4.450;2023-05-09T05:50:33;27.67;;;16.20;;
69835;SDS011;57132;51.972;4.450;2023-05-09T05:53:00;30.83;;;16.13;;
69835;SDS011;57132;51.972;4.450;2023-05-09T05:55:26;28.50;;;17.40;;
69835;SDS011;57132;51.972;4.450;2023-05-09T05:57:51;27.95;;;16.13;;
69835;SDS011;57132;51.972;4.450;2023-05-09T06:00:16;30.73;;;16.73;;
69835;SDS011;57132;51.972;4.450;2023-05-09T06:02:42;32.45;;;17.27;;
69835;SDS011;57132;51.972;4.450;2023-05-09T06:05:08;27.23;;;16.45;;
69835;SDS011;57132;51.972;4.450;2023-05-09T06:07:34;24.48;;;15.73;;
69835;SDS011;57132;51.972;4.450;2023-05-09T06:10:00;32.75;;;16.50;;
69835;SDS011;57132;51.972;4.450;2023-05-09T06:12:25;28.77;;;15.68;;
69835;SDS011;57132;51.972;4.450;2023-05-09T06:14:50;26.48;;;14.52;;
69835;SDS011;57132;51.972;4.450;2023-05-09T06:17:16;24.23;;;13.50;;
69835;SDS011;57132;51.972;4.450;2023-05-09T06:19:41;26.02;;;14.77;;
69835;SDS011;57132;51.972;4.450;2023-05-09T06:22:07;24.30;;;13.35;;
69835;SDS011;57132;51.972;4.450;2023-05-09T06:24:32;31.85;;;14.80;;
69835;SDS011;57132;51.972;4.450;2023-05-09T06:26:57;28.90;;;14.20;;
69835;SDS011;57132;51.972;4.450;2023-05-09T06:29:23;22.27;;;13.88;;
69835;SDS011;57132;51.972;4.450;2023-05-09T06:31:48;24.17;;;13.60;;
69835;SDS011;57132;51.972;4.450;2023-05-09T06:34:13;22.40;;;13.10;;
69835;SDS011;57132;51.972;4.450;2023-05-09T06:36:39;24.63;;;13.88;;
69835;SDS011;57132;51.972;4.450;2023-05-09T06:39:04;25.65;;;13.68;;
69835;SDS011;57132;51.972;4.450;2023-05-09T06:41:30;24.63;;;13.18;;
69835;SDS011;57132;51.972;4.450;2023-05-09T06:43:55;21.80;;;13.77;;
69835;SDS011;57132;51.972;4.450;2023-05-09T06:46:20;20.20;;;12.93;;
69835;SDS011;57132;51.972;4.450;2023-05-09T06:48:46;24.33;;;13.43;;
69835;SDS011;57132;51.972;4.450;2023-05-09T06:51:12;22.65;;;13.93;;
69835;SDS011;57132;51.972;4.450;2023-05-09T06:53:37;22.73;;;12.75;;
69835;SDS011;57132;51.972;4.450;2023-05-09T06:56:03;24.75;;;13.88;;
69835;SDS011;57132;51.972;4.450;2023-05-09T06:58:28;19.40;;;11.77;;
69835;SDS011;57132;51.972;4.450;2023-05-09T07:00:53;17.20;;;11.35;;
69835;SDS011;57132;51.972;4.450;2023-05-09T07:03:20;18.38;;;10.60;;
69835;SDS011;57132;51.972;4.450;2023-05-09T07:05:45;18.17;;;11.40;;
69835;SDS011;57132;51.972;4.450;2023-05-09T07:08:10;19.25;;;11.30;;
69835;SDS011;57132;51.972;4.450;2023-05-09T07:10:36;18.25;;;10.98;;
69835;SDS011;57132;51.972;4.450;2023-05-09T07:13:02;19.17;;;11.00;;
69835;SDS011;57132;51.972;4.450;2023-05-09T07:15:28;19.77;;;11.80;;
69835;SDS011;57132;51.972;4.450;2023-05-09T07:17:53;19.00;;;11.68;;
69835;SDS011;57132;51.972;4.450;2023-05-09T07:20:19;22.00;;;12.13;;
69835;SDS011;57132;51.972;4.450;2023-05-09T07:22:44;20.85;;;12.27;;
69835;SDS011;57132;51.972;4.450;2023-05-09T07:25:09;22.50;;;11.68;;
69835;SDS011;57132;51.972;4.450;2023-05-09T07:27:35;19.73;;;11.85;;
69835;SDS011;57132;51.972;4.450;2023-05-09T07:30:02;20.52;;;11.52;;
69835;SDS011;57132;51.972;4.450;2023-05-09T07:32:29;23.10;;;12.05;;
69835;SDS011;57132;51.972;4.450;2023-05-09T07:34:54;25.55;;;13.85;;
69835;SDS011;57132;51.972;4.450;2023-05-09T07:37:20;21.63;;;14.20;;
69835;SDS011;57132;51.972;4.450;2023-05-09T07:39:45;21.17;;;12.43;;
69835;SDS011;57132;51.972;4.450;2023-05-09T07:42:13;22.35;;;13.48;;
69835;SDS011;57132;51.972;4.450;2023-05-09T07:44:39;21.55;;;12.98;;
69835;SDS011;57132;51.972;4.450;2023-05-09T07:47:05;22.40;;;14.43;;
69835;SDS011;57132;51.972;4.450;2023-05-09T07:49:31;25.60;;;14.07;;
69835;SDS011;57132;51.972;4.450;2023-05-09T07:51:56;20.05;;;13.23;;
69835;SDS011;57132;51.972;4.450;2023-05-09T07:54:22;22.38;;;13.63;;
69835;SDS011;57132;51.972;4.450;2023-05-09T07:56:47;24.00;;;14.10;;
69835;SDS011;57132;51.972;4.450;2023-05-09T07:59:12;21.95;;;13.35;;
69835;SDS011;57132;51.972;4.450;2023-05-09T08:01:38;19.83;;;13.18;;
69835;SDS011;57132;51.972;4.450;2023-05-09T08:04:03;20.30;;;12.75;;
69835;SDS011;57132;51.972;4.450;2023-05-09T08:06:31;22.92;;;13.98;;
69835;SDS011;57132;51.972;4.450;2023-05-09T08:08:56;23.05;;;14.73;;
69835;SDS011;57132;51.972;4.450;2023-05-09T08:11:22;20.08;;;13.48;;
69835;SDS011;57132;51.972;4.450;2023-05-09T08:13:47;22.02;;;14.80;;
69835;SDS011;57132;51.972;4.450;2023-05-09T08:16:13;23.70;;;14.98;;
69835;SDS011;57132;51.972;4.450;2023-05-09T08:18:38;23.10;;;15.38;;
69835;SDS011;57132;51.972;4.450;2023-05-09T08:21:03;22.88;;;13.55;;
69835;SDS011;57132;51.972;4.450;2023-05-09T08:23:29;23.17;;;15.27;;
69835;SDS011;57132;51.972;4.450;2023-05-09T08:25:54;21.85;;;14.57;;
69835;SDS011;57132;51.972;4.450;2023-05-09T08:28:20;22.73;;;15.65;;
69835;SDS011;57132;51.972;4.450;2023-05-09T08:30:49;19.95;;;13.57;;
69835;SDS011;57132;51.972;4.450;2023-05-09T08:33:15;21.55;;;15.20;;
69835;SDS011;57132;51.972;4.450;2023-05-09T08:35:40;25.15;;;15.10;;
69835;SDS011;57132;51.972;4.450;2023-05-09T08:38:06;21.30;;;13.25;;
69835;SDS011;57132;51.972;4.450;2023-05-09T08:40:34;22.63;;;14.88;;
69835;SDS011;57132;51.972;4.450;2023-05-09T08:43:00;22.58;;;14.70;;
69835;SDS011;57132;51.972;4.450;2023-05-09T08:45:28;24.08;;;15.00;;
69835;SDS011;57132;51.972;4.450;2023-05-09T08:47:54;22.95;;;15.18;;
69835;SDS011;57132;51.972;4.450;2023-05-09T08:50:21;21.10;;;15.20;;
69835;SDS011;57132;51.972;4.450;2023-05-09T08:52:46;22.27;;;15.35;;
69835;SDS011;57132;51.972;4.450;2023-05-09T08:55:12;24.00;;;15.30;;
69835;SDS011;57132;51.972;4.450;2023-05-09T08:57:38;21.35;;;14.95;;
69835;SDS011;57132;51.972;4.450;2023-05-09T09:00:04;23.02;;;15.85;;
69835;SDS011;57132;51.972;4.450;2023-05-09T09:02:31;22.73;;;15.63;;
69835;SDS011;57132;51.972;4.450;2023-05-09T09:04:58;21.70;;;14.52;;
69835;SDS011;57132;51.972;4.450;2023-05-09T09:07:24;23.25;;;15.13;;
69835;SDS011;57132;51.972;4.450;2023-05-09T09:09:51;23.25;;;15.02;;
69835;SDS011;57132;51.972;4.450;2023-05-09T09:12:18;27.90;;;16.33;;
69835;SDS011;57132;51.972;4.450;2023-05-09T09:14:47;23.13;;;15.68;;
69835;SDS011;57132;51.972;4.450;2023-05-09T09:17:17;20.08;;;14.75;;
69835;SDS011;57132;51.972;4.450;2023-05-09T09:19:44;23.25;;;15.10;;
69835;SDS011;57132;51.972;4.450;2023-05-09T09:22:14;21.95;;;15.05;;
69835;SDS011;57132;51.972;4.450;2023-05-09T09:24:42;19.52;;;14.43;;
69835;SDS011;57132;51.972;4.450;2023-05-09T09:27:08;21.48;;;15.75;;
69835;SDS011;57132;51.972;4.450;2023-05-09T09:29:33;22.17;;;15.32;;
69835;SDS011;57132;51.972;4.450;2023-05-09T09:32:02;26.70;;;15.95;;
69835;SDS011;57132;51.972;4.450;2023-05-09T09:34:28;20.45;;;15.30;;
69835;SDS011;57132;51.972;4.450;2023-05-09T09:36:53;25.75;;;16.67;;
69835;SDS011;57132;51.972;4.450;2023-05-09T09:39:19;21.00;;;16.00;;
69835;SDS011;57132;51.972;4.450;2023-05-09T09:41:46;22.48;;;16.95;;
69835;SDS011;57132;51.972;4.450;2023-05-09T09:44:12;25.23;;;16.80;;
69835;SDS011;57132;51.972;4.450;2023-05-09T09:46:46;23.40;;;16.85;;
69835;SDS011;57132;51.972;4.450;2023-05-09T09:49:22;23.42;;;17.60;;
69835;SDS011;57132;51.972;4.450;2023-05-09T09:51:54;23.98;;;17.13;;
69835;SDS011;57132;51.972;4.450;2023-05-09T09:54:20;23.65;;;16.75;;
69835;SDS011;57132;51.972;4.450;2023-05-09T09:56:47;23.67;;;17.48;;
69835;SDS011;57132;51.972;4.450;2023-05-09T09:59:18;25.50;;;17.83;;
69835;SDS011;57132;51.972;4.450;2023-05-09T10:02:05;25.70;;;17.35;;
69835;SDS011;57132;51.972;4.450;2023-05-09T10:04:36;23.23;;;17.17;;
69835;SDS011;57132;51.972;4.450;2023-05-09T10:07:03;26.85;;;18.40;;
69835;SDS011;57132;51.972;4.450;2023-05-09T10:09:31;24.00;;;17.13;;
69835;SDS011;57132;51.972;4.450;2023-05-09T10:12:00;23.73;;;17.35;;
69835;SDS011;57132;51.972;4.450;2023-05-09T10:14:27;24.75;;;18.50;;
69835;SDS011;57132;51.972;4.450;2023-05-09T10:16:55;23.02;;;17.50;;
69835;SDS011;57132;51.972;4.450;2023-05-09T10:19:22;22.13;;;17.25;;
69835;SDS011;57132;51.972;4.450;2023-05-09T10:21:52;24.85;;;17.27;;
69835;SDS011;57132;51.972;4.450;2023-05-09T10:24:26;26.60;;;18.23;;
69835;SDS011;57132;51.972;4.450;2023-05-09T10:27:01;23.00;;;16.48;;
69835;SDS011;57132;51.972;4.450;2023-05-09T10:29:28;24.27;;;17.60;;
69835;SDS011;57132;51.972;4.450;2023-05-09T10:31:58;22.25;;;17.17;;
69835;SDS011;57132;51.972;4.450;2023-05-09T10:34:26;23.42;;;17.48;;
69835;SDS011;57132;51.972;4.450;2023-05-09T10:36:55;22.95;;;17.52;;
69835;SDS011;57132;51.972;4.450;2023-05-09T10:39:24;22.58;;;16.02;;
69835;SDS011;57132;51.972;4.450;2023-05-09T10:41:50;24.85;;;17.80;;
69835;SDS011;57132;51.972;4.450;2023-05-09T10:44:16;22.30;;;17.10;;
69835;SDS011;57132;51.972;4.450;2023-05-09T10:46:41;24.10;;;17.70;;
69835;SDS011;57132;51.972;4.450;2023-05-09T10:49:09;21.92;;;16.75;;
69835;SDS011;57132;51.972;4.450;2023-05-09T10:51:34;23.98;;;16.38;;
69835;SDS011;57132;51.972;4.450;2023-05-09T10:54:00;23.48;;;17.02;;
69835;SDS011;57132;51.972;4.450;2023-05-09T10:56:28;24.15;;;17.60;;
69835;SDS011;57132;51.972;4.450;2023-05-09T10:58:55;24.73;;;18.55;;
69835;SDS011;57132;51.972;4.450;2023-05-09T11:01:34;25.42;;;18.80;;
69835;SDS011;57132;51.972;4.450;2023-05-09T11:04:09;23.65;;;17.92;;
69835;SDS011;57132;51.972;4.450;2023-05-09T11:11:54;19.42;;;13.07;;
69835;SDS011;57132;51.972;4.450;2023-05-09T11:17:04;18.30;;;12.70;;
69835;SDS011;57132;51.972;4.450;2023-05-09T11:22:21;15.75;;;12.40;;
69835;SDS011;57132;51.972;4.450;2023-05-09T11:25:01;17.90;;;14.20;;
69835;SDS011;57132;51.972;4.450;2023-05-09T11:27:34;15.65;;;12.85;;
69835;SDS011;57132;51.972;4.450;2023-05-09T11:30:20;14.07;;;11.15;;
69835;SDS011;57132;51.972;4.450;2023-05-09T11:32:46;12.55;;;10.30;;
69835;SDS011;57132;51.972;4.450;2023-05-09T11:35:16;15.40;;;11.35;;
69835;SDS011;57132;51.972;4.450;2023-05-09T11:37:47;13.82;;;9.75;;
69835;SDS011;57132;51.972;4.450;2023-05-09T11:40:19;15.13;;;9.63;;
69835;SDS011;57132;51.972;4.450;2023-05-09T11:42:49;11.57;;;9.55;;
69835;SDS011;57132;51.972;4.450;2023-05-09T11:45:20;14.68;;;9.63;;
69835;SDS011;57132;51.972;4.450;2023-05-09T11:47:46;11.27;;;9.00;;
69835;SDS011;57132;51.972;4.450;2023-05-09T11:50:13;11.35;;;8.20;;
69835;SDS011;57132;51.972;4.450;2023-05-09T11:52:41;9.27;;;6.88;;
69835;SDS011;57132;51.972;4.450;2023-05-09T11:55:10;8.20;;;6.50;;
69835;SDS011;57132;51.972;4.450;2023-05-09T11:57:40;8.57;;;6.68;;
69835;SDS011;57132;51.972;4.450;2023-05-09T12:00:06;9.95;;;6.68;;
69835;SDS011;57132;51.972;4.450;2023-05-09T12:02:34;8.93;;;7.13;;
69835;SDS011;57132;51.972;4.450;2023-05-09T12:05:09;8.90;;;6.30;;
69835;SDS011;57132;51.972;4.450;2023-05-09T12:07:36;7.70;;;6.10;;
69835;SDS011;57132;51.972;4.450;2023-05-09T12:10:04;9.88;;;6.30;;
69835;SDS011;57132;51.972;4.450;2023-05-09T12:12:34;10.15;;;6.40;;
69835;SDS011;57132;51.972;4.450;2023-05-09T12:15:05;8.75;;;6.13;;
69835;SDS011;57132;51.972;4.450;2023-05-09T12:17:32;7.82;;;6.43;;
69835;SDS011;57132;51.972;4.450;2023-05-09T12:19:58;8.25;;;5.57;;
69835;SDS011;57132;51.972;4.450;2023-05-09T12:22:25;7.03;;;5.55;;
69835;SDS011;57132;51.972;4.450;2023-05-09T12:24:52;6.82;;;5.28;;
69835;SDS011;57132;51.972;4.450;2023-05-09T12:27:18;9.93;;;5.72;;
69835;SDS011;57132;51.972;4.450;2023-05-09T12:29:44;8.27;;;5.63;;
69835;SDS011;57132;51.972;4.450;2023-05-09T12:32:12;6.70;;;5.82;;
69835;SDS011;57132;51.972;4.450;2023-05-09T12:34:39;10.50;;;5.97;;
69835;SDS011;57132;51.972;4.450;2023-05-09T12:37:12;8.27;;;5.55;;
69835;SDS011;57132;51.972;4.450;2023-05-09T12:39:41;12.05;;;7.93;;
69835;SDS011;57132;51.972;4.450;2023-05-09T12:42:13;8.95;;;7.35;;
69835;SDS011;57132;51.972;4.450;2023-05-09T12:44:38;10.07;;;6.75;;
69835;SDS011;57132;51.972;4.450;2023-05-09T12:47:04;7.85;;;5.80;;
69835;SDS011;57132;51.972;4.450;2023-05-09T12:49:29;7.45;;;5.78;;
69835;SDS011;57132;51.972;4.450;2023-05-09T12:51:56;9.35;;;5.90;;
69835;SDS011;57132;51.972;4.450;2023-05-09T12:54:23;8.50;;;5.80;;
69835;SDS011;57132;51.972;4.450;2023-05-09T12:56:50;7.63;;;5.60;;
69835;SDS011;57132;51.972;4.450;2023-05-09T12:59:21;8.65;;;6.28;;
69835;SDS011;57132;51.972;4.450;2023-05-09T13:01:54;9.05;;;5.95;;
69835;SDS011;57132;51.972;4.450;2023-05-09T13:04:21;10.80;;;6.85;;
69835;SDS011;57132;51.972;4.450;2023-05-09T13:06:48;9.27;;;5.93;;
69835;SDS011;57132;51.972;4.450;2023-05-09T13:09:17;10.18;;;7.03;;
69835;SDS011;57132;51.972;4.450;2023-05-09T13:11:44;9.25;;;7.18;;
69835;SDS011;57132;51.972;4.450;2023-05-09T13:14:10;9.32;;;7.22;;
69835;SDS011;57132;51.972;4.450;2023-05-09T13:16:36;9.48;;;6.50;;
69835;SDS011;57132;51.972;4.450;2023-05-09T13:19:01;8.82;;;7.28;;
69835;SDS011;57132;51.972;4.450;2023-05-09T13:21:29;11.35;;;7.38;;
69835;SDS011;57132;51.972;4.450;2023-05-09T13:23:54;10.23;;;7.47;;
69835;SDS011;57132;51.972;4.450;2023-05-09T13:26:20;8.25;;;7.03;;
69835;SDS011;57132;51.972;4.450;2023-05-09T13:28:45;10.63;;;7.35;;
69835;SDS011;57132;51.972;4.450;2023-05-09T13:31:10;8.25;;;6.70;;
69835;SDS011;57132;51.972;4.450;2023-05-09T13:33:36;10.98;;;7.90;;
69835;SDS011;57132;51.972;4.450;2023-05-09T13:36:01;10.57;;;7.88;;
69835;SDS011;57132;51.972;4.450;2023-05-09T13:38:27;10.48;;;7.30;;
69835;SDS011;57132;51.972;4.450;2023-05-09T13:40:54;11.73;;;7.65;;
69835;SDS011;57132;51.972;4.450;2023-05-09T13:43:20;10.65;;;7.18;;
69835;SDS011;57132;51.972;4.450;2023-05-09T13:45:46;11.55;;;7.55;;
69835;SDS011;57132;51.972;4.450;2023-05-09T13:48:11;10.65;;;7.90;;
69835;SDS011;57132;51.972;4.450;2023-05-09T13:50:37;10.93;;;8.13;;
69835;SDS011;57132;51.972;4.450;2023-05-09T13:53:04;10.57;;;7.43;;
69835;SDS011;57132;51.972;4.450;2023-05-09T13:55:29;8.80;;;6.82;;
69835;SDS011;57132;51.972;4.450;2023-05-09T13:57:55;9.68;;;7.57;;
69835;SDS011;57132;51.972;4.450;2023-05-09T14:00:20;9.73;;;7.28;;
69835;SDS011;57132;51.972;4.450;2023-05-09T14:02:46;10.95;;;8.70;;
69835;SDS011;57132;51.972;4.450;2023-05-09T14:05:12;11.32;;;8.45;;
69835;SDS011;57132;51.972;4.450;2023-05-09T14:07:37;11.75;;;8.10;;
69835;SDS011;57132;51.972;4.450;2023-05-09T14:10:02;12.02;;;8.30;;
69835;SDS011;57132;51.972;4.450;2023-05-09T14:12:28;8.25;;;6.88;;
69835;SDS011;57132;51.972;4.450;2023-05-09T14:14:54;11.05;;;8.27;;
69835;SDS011;57132;51.972;4.450;2023-05-09T14:17:19;8.98;;;7.80;;
69835;SDS011;57132;51.972;4.450;2023-05-09T14:19:44;10.60;;;8.65;;
69835;SDS011;57132;51.972;4.450;2023-05-09T14:22:10;11.85;;;9.32;;
69835;SDS011;57132;51.972;4.450;2023-05-09T14:24:35;11.75;;;9.35;;
69835;SDS011;57132;51.972;4.450;2023-05-09T14:27:01;12.65;;;10.20;;
69835;SDS011;57132;51.972;4.450;2023-05-09T14:29:26;10.52;;;9.38;;
69835;SDS011;57132;51.972;4.450;2023-05-09T14:31:52;11.45;;;9.65;;
69835;SDS011;57132;51.972;4.450;2023-05-09T14:34:17;13.00;;;9.32;;
69835;SDS011;57132;51.972;4.450;2023-05-09T14:36:43;10.60;;;8.63;;
69835;SDS011;57132;51.972;4.450;2023-05-09T14:39:08;11.07;;;8.95;;
69835;SDS011;57132;51.972;4.450;2023-05-09T14:41:33;10.82;;;8.68;;